sensor_id;sensor_type;location;lat;lon;timestamp;P1;durP1;ratioP1;P2;durP2;ratioP2
46282;SDS011;32017;43.700;11.820;2023-04-06T00:00:27;12.60;;;12.30;;
46282;SDS011;32017;43.700;11.820;2023-04-06T00:02:47;11.63;;;11.18;;
46282;SDS011;32017;43.700;11.820;2023-04-06T00:05:08;13.48;;;13.02;;
46282;SDS011;32017;43.700;11.820;2023-04-06T00:07:28;11.07;;;10.77;;
46282;SDS011;32017;43.700;11.820;2023-04-06T00:09:49;11.82;;;11.52;;
46282;SDS011;32017;43.700;11.820;2023-04-06T00:12:09;12.88;;;12.40;;
46282;SDS011;32017;43.700;11.820;2023-04-06T00:14:29;14.38;;;13.75;;
46282;SDS011;32017;43.700;11.820;2023-04-06T00:16:49;15.05;;;14.43;;
46282;SDS011;32017;43.700;11.820;2023-04-06T00:19:10;15.30;;;14.38;;
46282;SDS011;32017;43.700;11.820;2023-04-06T00:21:30;15.10;;;14.02;;
46282;SDS011;32017;43.700;11.820;2023-04-06T00:23:51;15.38;;;14.77;;
46282;SDS011;32017;43.700;11.820;2023-04-06T00:26:11;14.57;;;13.98;;
46282;SDS011;32017;43.700;11.820;2023-04-06T00:28:31;14.10;;;13.57;;
46282;SDS011;32017;43.700;11.820;2023-04-06T00:30:54;12.98;;;12.50;;
46282;SDS011;32017;43.700;11.820;2023-04-06T00:33:15;15.15;;;14.25;;
46282;SDS011;32017;43.700;11.820;2023-04-06T00:35:35;14.85;;;14.52;;
46282;SDS011;32017;43.700;11.820;2023-04-06T00:37:56;12.63;;;12.32;;
46282;SDS011;32017;43.700;11.820;2023-04-06T00:40:16;14.40;;;13.25;;
46282;SDS011;32017;43.700;11.820;2023-04-06T00:42:36;14.43;;;13.80;;
46282;SDS011;32017;43.700;11.820;2023-04-06T00:44:57;14.60;;;13.85;;
46282;SDS011;32017;43.700;11.820;2023-04-06T00:47:18;15.13;;;14.68;;
46282;SDS011;32017;43.700;11.820;2023-04-06T00:49:38;12.90;;;12.27;;
46282;SDS011;32017;43.700;11.820;2023-04-06T00:51:58;12.98;;;12.73;;
46282;SDS011;32017;43.700;11.820;2023-04-06T00:54:18;14.00;;;13.52;;
46282;SDS011;32017;43.700;11.820;2023-04-06T00:56:38;13.88;;;13.05;;
46282;SDS011;32017;43.700;11.820;2023-04-06T00:58:58;14.55;;;14.10;;
46282;SDS011;32017;43.700;11.820;2023-04-06T01:01:19;12.73;;;12.25;;
46282;SDS011;32017;43.700;11.820;2023-04-06T01:03:39;11.52;;;11.18;;
46282;SDS011;32017;43.700;11.820;2023-04-06T01:06:01;14.40;;;14.00;;
46282;SDS011;32017;43.700;11.820;2023-04-06T01:08:21;13.32;;;12.98;;
46282;SDS011;32017;43.700;11.820;2023-04-06T01:10:41;14.00;;;13.23;;
46282;SDS011;32017;43.700;11.820;2023-04-06T01:13:01;13.90;;;13.25;;
46282;SDS011;32017;43.700;11.820;2023-04-06T01:15:22;14.88;;;14.40;;
46282;SDS011;32017;43.700;11.820;2023-04-06T01:17:42;14.45;;;13.95;;
46282;SDS011;32017;43.700;11.820;2023-04-06T01:20:02;14.85;;;13.50;;
46282;SDS011;32017;43.700;11.820;2023-04-06T01:22:23;14.88;;;14.32;;
46282;SDS011;32017;43.700;11.820;2023-04-06T01:24:46;12.82;;;12.52;;
46282;SDS011;32017;43.700;11.820;2023-04-06T01:27:06;14.70;;;14.20;;
46282;SDS011;32017;43.700;11.820;2023-04-06T01:29:26;14.32;;;13.82;;
46282;SDS011;32017;43.700;11.820;2023-04-06T01:31:46;13.10;;;12.80;;
46282;SDS011;32017;43.700;11.820;2023-04-06T01:34:07;12.88;;;12.50;;
46282;SDS011;32017;43.700;11.820;2023-04-06T01:36:27;13.40;;;12.75;;
46282;SDS011;32017;43.700;11.820;2023-04-06T01:38:47;14.30;;;13.38;;
46282;SDS011;32017;43.700;11.820;2023-04-06T01:41:08;14.77;;;14.18;;
46282;SDS011;32017;43.700;11.820;2023-04-06T01:43:28;13.10;;;12.57;;
46282;SDS011;32017;43.700;11.820;2023-04-06T01:45:48;14.05;;;13.57;;
46282;SDS011;32017;43.700;11.820;2023-04-06T01:48:08;13.30;;;12.90;;
46282;SDS011;32017;43.700;11.820;2023-04-06T01:50:29;13.93;;;13.32;;
46282;SDS011;32017;43.700;11.820;2023-04-06T01:52:49;12.77;;;12.38;;
46282;SDS011;32017;43.700;11.820;2023-04-06T01:55:09;12.85;;;12.50;;
46282;SDS011;32017;43.700;11.820;2023-04-06T01:57:29;13.13;;;12.77;;
46282;SDS011;32017;43.700;11.820;2023-04-06T01:59:49;13.15;;;12.25;;
46282;SDS011;32017;43.700;11.820;2023-04-06T02:02:10;13.02;;;12.10;;
46282;SDS011;32017;43.700;11.820;2023-04-06T02:04:32;14.32;;;13.32;;
46282;SDS011;32017;43.700;11.820;2023-04-06T02:06:52;13.85;;;13.35;;
46282;SDS011;32017;43.700;11.820;2023-04-06T02:09:13;15.18;;;14.00;;
46282;SDS011;32017;43.700;11.820;2023-04-06T02:11:34;15.90;;;15.25;;
46282;SDS011;32017;43.700;11.820;2023-04-06T02:13:55;13.48;;;12.98;;
46282;SDS011;32017;43.700;11.820;2023-04-06T02:16:15;13.82;;;13.35;;
46282;SDS011;32017;43.700;11.820;2023-04-06T02:18:35;12.82;;;12.40;;
46282;SDS011;32017;43.700;11.820;2023-04-06T02:20:55;14.55;;;13.85;;
46282;SDS011;32017;43.700;11.820;2023-04-06T02:23:16;13.65;;;13.25;;
46282;SDS011;32017;43.700;11.820;2023-04-06T02:25:36;14.15;;;13.43;;
46282;SDS011;32017;43.700;11.820;2023-04-06T02:27:56;13.98;;;13.45;;
46282;SDS011;32017;43.700;11.820;2023-04-06T02:30:16;16.50;;;15.60;;
46282;SDS011;32017;43.700;11.820;2023-04-06T02:32:37;14.40;;;13.75;;
46282;SDS011;32017;43.700;11.820;2023-04-06T02:34:57;14.95;;;14.23;;
46282;SDS011;32017;43.700;11.820;2023-04-06T02:37:17;13.13;;;12.75;;
46282;SDS011;32017;43.700;11.820;2023-04-06T02:39:37;11.38;;;11.07;;
46282;SDS011;32017;43.700;11.820;2023-04-06T02:41:57;14.05;;;13.43;;
46282;SDS011;32017;43.700;11.820;2023-04-06T02:44:18;13.40;;;12.75;;
46282;SDS011;32017;43.700;11.820;2023-04-06T02:46:38;15.10;;;14.35;;
46282;SDS011;32017;43.700;11.820;2023-04-06T02:48:59;13.02;;;12.63;;
46282;SDS011;32017;43.700;11.820;2023-04-06T02:51:19;14.23;;;13.73;;
46282;SDS011;32017;43.700;11.820;2023-04-06T02:53:40;14.93;;;14.32;;
46282;SDS011;32017;43.700;11.820;2023-04-06T02:56:00;19.60;;;18.90;;
46282;SDS011;32017;43.700;11.820;2023-04-06T02:58:20;27.52;;;26.65;;
46282;SDS011;32017;43.700;11.820;2023-04-06T03:00:41;27.38;;;26.27;;
46282;SDS011;32017;43.700;11.820;2023-04-06T03:03:01;15.65;;;15.00;;
46282;SDS011;32017;43.700;11.820;2023-04-06T03:05:21;14.38;;;13.88;;
46282;SDS011;32017;43.700;11.820;2023-04-06T03:07:41;13.00;;;12.60;;
46282;SDS011;32017;43.700;11.820;2023-04-06T03:10:02;17.73;;;16.90;;
46282;SDS011;32017;43.700;11.820;2023-04-06T03:12:22;15.13;;;14.70;;
46282;SDS011;32017;43.700;11.820;2023-04-06T03:14:43;17.40;;;16.42;;
46282;SDS011;32017;43.700;11.820;2023-04-06T03:17:03;30.30;;;29.30;;
46282;SDS011;32017;43.700;11.820;2023-04-06T03:19:23;30.98;;;29.55;;
46282;SDS011;32017;43.700;11.820;2023-04-06T03:21:44;34.67;;;33.33;;
46282;SDS011;32017;43.700;11.820;2023-04-06T03:24:05;28.13;;;27.23;;
46282;SDS011;32017;43.700;11.820;2023-04-06T03:26:26;27.55;;;26.50;;
46282;SDS011;32017;43.700;11.820;2023-04-06T03:28:46;33.75;;;32.15;;
46282;SDS011;32017;43.700;11.820;2023-04-06T03:31:06;32.00;;;30.80;;
46282;SDS011;32017;43.700;11.820;2023-04-06T03:33:26;33.05;;;31.40;;
46282;SDS011;32017;43.700;11.820;2023-04-06T03:35:46;30.27;;;29.30;;
46282;SDS011;32017;43.700;11.820;2023-04-06T03:38:07;17.90;;;16.85;;
46282;SDS011;32017;43.700;11.820;2023-04-06T03:40:27;14.20;;;13.20;;
46282;SDS011;32017;43.700;11.820;2023-04-06T03:42:47;15.60;;;14.75;;
46282;SDS011;32017;43.700;11.820;2023-04-06T03:45:07;14.60;;;13.93;;
46282;SDS011;32017;43.700;11.820;2023-04-06T03:47:28;16.60;;;15.82;;
46282;SDS011;32017;43.700;11.820;2023-04-06T03:49:48;19.77;;;18.65;;
46282;SDS011;32017;43.700;11.820;2023-04-06T03:52:08;21.88;;;21.05;;
46282;SDS011;32017;43.700;11.820;2023-04-06T03:54:28;18.67;;;17.45;;
46282;SDS011;32017;43.700;11.820;2023-04-06T03:56:48;16.00;;;15.52;;
46282;SDS011;32017;43.700;11.820;2023-04-06T03:59:08;14.68;;;14.05;;
46282;SDS011;32017;43.700;11.820;2023-04-06T04:01:29;16.52;;;15.70;;
46282;SDS011;32017;43.700;11.820;2023-04-06T04:03:49;14.35;;;14.10;;
46282;SDS011;32017;43.700;11.820;2023-04-06T04:06:11;13.77;;;13.38;;
46282;SDS011;32017;43.700;11.820;2023-04-06T04:08:31;22.45;;;21.55;;
46282;SDS011;32017;43.700;11.820;2023-04-06T04:10:51;18.88;;;17.98;;
46282;SDS011;32017;43.700;11.820;2023-04-06T04:13:11;19.80;;;19.08;;
46282;SDS011;32017;43.700;11.820;2023-04-06T04:15:31;16.90;;;16.45;;
46282;SDS011;32017;43.700;11.820;2023-04-06T04:17:51;24.75;;;23.77;;
46282;SDS011;32017;43.700;11.820;2023-04-06T04:20:11;27.20;;;26.02;;
46282;SDS011;32017;43.700;11.820;2023-04-06T04:22:31;25.80;;;24.80;;
46282;SDS011;32017;43.700;11.820;2023-04-06T04:24:51;19.08;;;18.35;;
46282;SDS011;32017;43.700;11.820;2023-04-06T04:27:12;18.23;;;17.48;;
46282;SDS011;32017;43.700;11.820;2023-04-06T04:29:32;24.85;;;23.38;;
46282;SDS011;32017;43.700;11.820;2023-04-06T04:31:52;20.38;;;19.58;;
46282;SDS011;32017;43.700;11.820;2023-04-06T04:34:13;25.60;;;24.33;;
46282;SDS011;32017;43.700;11.820;2023-04-06T04:36:34;20.33;;;19.63;;
46282;SDS011;32017;43.700;11.820;2023-04-06T04:38:55;34.95;;;33.45;;
46282;SDS011;32017;43.700;11.820;2023-04-06T04:41:15;21.10;;;20.05;;
46282;SDS011;32017;43.700;11.820;2023-04-06T04:43:35;24.33;;;23.23;;
46282;SDS011;32017;43.700;11.820;2023-04-06T04:45:55;17.02;;;16.13;;
46282;SDS011;32017;43.700;11.820;2023-04-06T04:48:15;16.90;;;16.38;;
46282;SDS011;32017;43.700;11.820;2023-04-06T04:50:35;23.10;;;22.02;;
46282;SDS011;32017;43.700;11.820;2023-04-06T04:52:55;18.70;;;17.70;;
46282;SDS011;32017;43.700;11.820;2023-04-06T04:55:16;21.30;;;20.10;;
46282;SDS011;32017;43.700;11.820;2023-04-06T04:57:37;20.08;;;19.25;;
46282;SDS011;32017;43.700;11.820;2023-04-06T04:59:57;20.92;;;19.63;;
46282;SDS011;32017;43.700;11.820;2023-04-06T05:02:17;29.17;;;27.88;;
46282;SDS011;32017;43.700;11.820;2023-04-06T05:04:38;19.80;;;18.83;;
46282;SDS011;32017;43.700;11.820;2023-04-06T05:07:02;19.70;;;18.23;;
46282;SDS011;32017;43.700;11.820;2023-04-06T05:09:22;24.40;;;22.13;;
46282;SDS011;32017;43.700;11.820;2023-04-06T05:11:42;17.88;;;17.02;;
46282;SDS011;32017;43.700;11.820;2023-04-06T05:14:02;18.05;;;16.85;;
46282;SDS011;32017;43.700;11.820;2023-04-06T05:16:22;19.55;;;17.80;;
46282;SDS011;32017;43.700;11.820;2023-04-06T05:18:42;20.20;;;18.95;;
46282;SDS011;32017;43.700;11.820;2023-04-06T05:21:03;29.63;;;28.08;;
46282;SDS011;32017;43.700;11.820;2023-04-06T05:23:23;44.83;;;42.58;;
46282;SDS011;32017;43.700;11.820;2023-04-06T05:25:43;42.05;;;39.78;;
46282;SDS011;32017;43.700;11.820;2023-04-06T05:28:03;40.38;;;38.42;;
46282;SDS011;32017;43.700;11.820;2023-04-06T05:30:24;41.45;;;39.72;;
46282;SDS011;32017;43.700;11.820;2023-04-06T05:32:44;41.33;;;39.35;;
46282;SDS011;32017;43.700;11.820;2023-04-06T05:35:05;38.22;;;36.72;;
46282;SDS011;32017;43.700;11.820;2023-04-06T05:37:25;34.60;;;32.53;;
46282;SDS011;32017;43.700;11.820;2023-04-06T05:39:45;30.27;;;28.88;;
46282;SDS011;32017;43.700;11.820;2023-04-06T05:42:05;37.35;;;35.60;;
46282;SDS011;32017;43.700;11.820;2023-04-06T05:44:26;29.92;;;28.42;;
46282;SDS011;32017;43.700;11.820;2023-04-06T05:46:46;31.90;;;30.25;;
46282;SDS011;32017;43.700;11.820;2023-04-06T05:49:06;21.50;;;20.30;;
46282;SDS011;32017;43.700;11.820;2023-04-06T05:51:27;21.33;;;20.02;;
46282;SDS011;32017;43.700;11.820;2023-04-06T05:53:47;32.13;;;30.40;;
46282;SDS011;32017;43.700;11.820;2023-04-06T05:56:07;39.78;;;37.85;;
46282;SDS011;32017;43.700;11.820;2023-04-06T05:58:27;22.77;;;21.70;;
46282;SDS011;32017;43.700;11.820;2023-04-06T06:00:47;32.35;;;31.08;;
46282;SDS011;32017;43.700;11.820;2023-04-06T06:03:09;34.60;;;33.00;;
46282;SDS011;32017;43.700;11.820;2023-04-06T06:05:29;38.20;;;36.53;;
46282;SDS011;32017;43.700;11.820;2023-04-06T06:07:50;24.88;;;23.70;;
46282;SDS011;32017;43.700;11.820;2023-04-06T06:10:10;23.33;;;22.23;;
46282;SDS011;32017;43.700;11.820;2023-04-06T06:12:30;20.38;;;19.23;;
46282;SDS011;32017;43.700;11.820;2023-04-06T06:14:50;16.08;;;15.57;;
46282;SDS011;32017;43.700;11.820;2023-04-06T06:17:10;16.83;;;15.77;;
46282;SDS011;32017;43.700;11.820;2023-04-06T06:19:31;15.88;;;14.93;;
46282;SDS011;32017;43.700;11.820;2023-04-06T06:21:51;19.02;;;17.50;;
46282;SDS011;32017;43.700;11.820;2023-04-06T06:24:11;17.90;;;16.98;;
46282;SDS011;32017;43.700;11.820;2023-04-06T06:26:31;18.75;;;17.48;;
46282;SDS011;32017;43.700;11.820;2023-04-06T06:28:52;16.05;;;15.25;;
46282;SDS011;32017;43.700;11.820;2023-04-06T06:31:12;16.67;;;15.70;;
46282;SDS011;32017;43.700;11.820;2023-04-06T06:33:32;14.07;;;13.15;;
46282;SDS011;32017;43.700;11.820;2023-04-06T06:35:52;14.48;;;13.57;;
46282;SDS011;32017;43.700;11.820;2023-04-06T06:38:13;16.98;;;15.77;;
46282;SDS011;32017;43.700;11.820;2023-04-06T06:40:33;18.55;;;16.75;;
46282;SDS011;32017;43.700;11.820;2023-04-06T06:42:54;17.95;;;16.35;;
46282;SDS011;32017;43.700;11.820;2023-04-06T06:45:14;16.85;;;15.40;;
46282;SDS011;32017;43.700;11.820;2023-04-06T06:47:34;17.83;;;16.48;;
46282;SDS011;32017;43.700;11.820;2023-04-06T06:49:54;17.00;;;15.63;;
46282;SDS011;32017;43.700;11.820;2023-04-06T06:52:15;18.02;;;16.33;;
46282;SDS011;32017;43.700;11.820;2023-04-06T06:54:35;17.30;;;15.60;;
46282;SDS011;32017;43.700;11.820;2023-04-06T06:56:55;16.27;;;14.85;;
46282;SDS011;32017;43.700;11.820;2023-04-06T06:59:15;14.15;;;13.10;;
46282;SDS011;32017;43.700;11.820;2023-04-06T07:01:36;14.35;;;13.30;;
46282;SDS011;32017;43.700;11.820;2023-04-06T07:03:57;15.18;;;13.98;;
46282;SDS011;32017;43.700;11.820;2023-04-06T07:06:19;13.45;;;12.70;;
46282;SDS011;32017;43.700;11.820;2023-04-06T07:08:40;12.48;;;11.73;;
46282;SDS011;32017;43.700;11.820;2023-04-06T07:11:00;11.00;;;10.60;;
46282;SDS011;32017;43.700;11.820;2023-04-06T07:13:21;10.88;;;10.38;;
46282;SDS011;32017;43.700;11.820;2023-04-06T07:15:42;13.25;;;12.27;;
46282;SDS011;32017;43.700;11.820;2023-04-06T07:18:02;11.95;;;11.10;;
46282;SDS011;32017;43.700;11.820;2023-04-06T07:20:23;12.48;;;11.30;;
46282;SDS011;32017;43.700;11.820;2023-04-06T07:22:43;37.15;;;24.02;;
46282;SDS011;32017;43.700;11.820;2023-04-06T07:25:04;17.23;;;15.52;;
46282;SDS011;32017;43.700;11.820;2023-04-06T07:27:24;12.70;;;11.90;;
46282;SDS011;32017;43.700;11.820;2023-04-06T07:29:45;10.40;;;9.88;;
46282;SDS011;32017;43.700;11.820;2023-04-06T07:32:05;11.52;;;10.90;;
46282;SDS011;32017;43.700;11.820;2023-04-06T07:34:25;17.55;;;14.48;;
46282;SDS011;32017;43.700;11.820;2023-04-06T07:36:46;23.98;;;16.30;;
46282;SDS011;32017;43.700;11.820;2023-04-06T07:39:06;10.73;;;9.70;;
46282;SDS011;32017;43.700;11.820;2023-04-06T07:41:27;15.80;;;14.45;;
46282;SDS011;32017;43.700;11.820;2023-04-06T07:43:47;11.90;;;10.88;;
46282;SDS011;32017;43.700;11.820;2023-04-06T07:46:08;15.13;;;13.63;;
46282;SDS011;32017;43.700;11.820;2023-04-06T07:48:28;8.90;;;8.32;;
46282;SDS011;32017;43.700;11.820;2023-04-06T07:50:49;11.65;;;10.85;;
46282;SDS011;32017;43.700;11.820;2023-04-06T07:53:09;7.78;;;7.28;;
46282;SDS011;32017;43.700;11.820;2023-04-06T07:55:30;7.88;;;7.40;;
46282;SDS011;32017;43.700;11.820;2023-04-06T07:57:50;6.60;;;6.38;;
46282;SDS011;32017;43.700;11.820;2023-04-06T08:00:10;7.05;;;6.75;;
46282;SDS011;32017;43.700;11.820;2023-04-06T08:02:31;7.13;;;6.40;;
46282;SDS011;32017;43.700;11.820;2023-04-06T08:04:51;7.22;;;6.80;;
46282;SDS011;32017;43.700;11.820;2023-04-06T08:07:12;6.47;;;6.38;;
46282;SDS011;32017;43.700;11.820;2023-04-06T08:09:32;5.43;;;5.32;;
46282;SDS011;32017;43.700;11.820;2023-04-06T08:11:53;5.10;;;4.90;;
46282;SDS011;32017;43.700;11.820;2023-04-06T08:14:13;5.13;;;5.03;;
46282;SDS011;32017;43.700;11.820;2023-04-06T08:16:34;5.72;;;5.45;;
46282;SDS011;32017;43.700;11.820;2023-04-06T08:18:54;4.57;;;4.40;;
46282;SDS011;32017;43.700;11.820;2023-04-06T08:21:15;4.40;;;4.30;;
46282;SDS011;32017;43.700;11.820;2023-04-06T08:23:35;4.85;;;4.68;;
46282;SDS011;32017;43.700;11.820;2023-04-06T08:25:55;5.30;;;4.97;;
46282;SDS011;32017;43.700;11.820;2023-04-06T08:28:15;5.18;;;4.97;;
46282;SDS011;32017;43.700;11.820;2023-04-06T08:30:35;4.97;;;4.65;;
46282;SDS011;32017;43.700;11.820;2023-04-06T08:32:56;5.05;;;4.85;;
46282;SDS011;32017;43.700;11.820;2023-04-06T08:35:16;5.75;;;5.65;;
46282;SDS011;32017;43.700;11.820;2023-04-06T08:37:37;4.65;;;4.43;;
46282;SDS011;32017;43.700;11.820;2023-04-06T08:39:58;5.85;;;5.55;;
46282;SDS011;32017;43.700;11.820;2023-04-06T08:42:21;4.93;;;4.72;;
46282;SDS011;32017;43.700;11.820;2023-04-06T08:44:41;4.35;;;4.15;;
46282;SDS011;32017;43.700;11.820;2023-04-06T08:47:02;5.55;;;5.35;;
46282;SDS011;32017;43.700;11.820;2023-04-06T08:49:24;5.18;;;4.97;;
46282;SDS011;32017;43.700;11.820;2023-04-06T08:51:45;5.40;;;5.20;;
46282;SDS011;32017;43.700;11.820;2023-04-06T08:54:06;4.70;;;4.55;;
46282;SDS011;32017;43.700;11.820;2023-04-06T08:56:28;4.40;;;4.20;;
46282;SDS011;32017;43.700;11.820;2023-04-06T08:58:48;4.82;;;4.63;;
46282;SDS011;32017;43.700;11.820;2023-04-06T09:01:11;6.32;;;6.03;;
46282;SDS011;32017;43.700;11.820;2023-04-06T09:03:32;7.90;;;7.10;;
46282;SDS011;32017;43.700;11.820;2023-04-06T09:05:53;4.90;;;4.47;;
46282;SDS011;32017;43.700;11.820;2023-04-06T09:08:13;4.75;;;4.60;;
46282;SDS011;32017;43.700;11.820;2023-04-06T09:10:34;5.03;;;4.82;;
46282;SDS011;32017;43.700;11.820;2023-04-06T09:13:02;4.90;;;4.70;;
46282;SDS011;32017;43.700;11.820;2023-04-06T09:15:22;4.78;;;4.68;;
46282;SDS011;32017;43.700;11.820;2023-04-06T09:17:44;5.40;;;5.13;;
46282;SDS011;32017;43.700;11.820;2023-04-06T09:20:05;5.25;;;5.05;;
46282;SDS011;32017;43.700;11.820;2023-04-06T09:22:34;6.72;;;6.32;;
46282;SDS011;32017;43.700;11.820;2023-04-06T09:24:54;4.47;;;4.38;;
46282;SDS011;32017;43.700;11.820;2023-04-06T09:27:14;4.50;;;4.30;;
46282;SDS011;32017;43.700;11.820;2023-04-06T09:29:35;4.63;;;4.43;;
46282;SDS011;32017;43.700;11.820;2023-04-06T09:32:05;4.65;;;4.35;;
46282;SDS011;32017;43.700;11.820;2023-04-06T09:34:25;5.30;;;5.10;;
46282;SDS011;32017;43.700;11.820;2023-04-06T09:36:46;3.85;;;3.75;;
46282;SDS011;32017;43.700;11.820;2023-04-06T09:39:06;8.45;;;7.95;;
46282;SDS011;32017;43.700;11.820;2023-04-06T09:41:27;4.57;;;4.38;;
46282;SDS011;32017;43.700;11.820;2023-04-06T09:43:49;7.93;;;7.15;;
46282;SDS011;32017;43.700;11.820;2023-04-06T09:46:09;4.50;;;4.40;;
46282;SDS011;32017;43.700;11.820;2023-04-06T09:48:30;5.55;;;5.25;;
46282;SDS011;32017;43.700;11.820;2023-04-06T09:50:52;7.78;;;7.38;;
46282;SDS011;32017;43.700;11.820;2023-04-06T09:53:14;4.03;;;3.92;;
46282;SDS011;32017;43.700;11.820;2023-04-06T09:55:36;4.78;;;4.60;;
46282;SDS011;32017;43.700;11.820;2023-04-06T09:58:04;5.63;;;5.22;;
46282;SDS011;32017;43.700;11.820;2023-04-06T10:00:25;7.28;;;6.97;;
46282;SDS011;32017;43.700;11.820;2023-04-06T10:05:09;4.75;;;4.55;;
46282;SDS011;32017;43.700;11.820;2023-04-06T10:07:33;4.72;;;4.53;;
46282;SDS011;32017;43.700;11.820;2023-04-06T10:10:00;3.92;;;3.83;;
46282;SDS011;32017;43.700;11.820;2023-04-06T10:12:21;3.92;;;3.60;;
46282;SDS011;32017;43.700;11.820;2023-04-06T10:14:41;4.78;;;4.68;;
46282;SDS011;32017;43.700;11.820;2023-04-06T10:17:03;4.45;;;4.30;;
46282;SDS011;32017;43.700;11.820;2023-04-06T10:19:24;4.68;;;4.47;;
46282;SDS011;32017;43.700;11.820;2023-04-06T10:21:46;3.92;;;3.83;;
46282;SDS011;32017;43.700;11.820;2023-04-06T10:24:08;4.50;;;4.30;;
46282;SDS011;32017;43.700;11.820;2023-04-06T10:26:30;3.47;;;3.38;;
46282;SDS011;32017;43.700;11.820;2023-04-06T10:28:50;4.50;;;4.30;;
46282;SDS011;32017;43.700;11.820;2023-04-06T10:31:11;3.35;;;3.35;;
46282;SDS011;32017;43.700;11.820;2023-04-06T10:33:31;5.10;;;5.00;;
46282;SDS011;32017;43.700;11.820;2023-04-06T10:35:51;4.13;;;3.55;;
46282;SDS011;32017;43.700;11.820;2023-04-06T10:38:11;3.55;;;3.40;;
46282;SDS011;32017;43.700;11.820;2023-04-06T10:40:40;3.50;;;3.30;;
46282;SDS011;32017;43.700;11.820;2023-04-06T10:43:12;4.07;;;3.78;;
46282;SDS011;32017;43.700;11.820;2023-04-06T10:45:32;3.55;;;3.45;;
46282;SDS011;32017;43.700;11.820;2023-04-06T10:47:54;3.13;;;2.70;;
46282;SDS011;32017;43.700;11.820;2023-04-06T10:50:15;2.83;;;2.72;;
46282;SDS011;32017;43.700;11.820;2023-04-06T10:52:39;3.50;;;3.20;;
46282;SDS011;32017;43.700;11.820;2023-04-06T10:54:59;3.13;;;2.92;;
46282;SDS011;32017;43.700;11.820;2023-04-06T10:57:27;3.88;;;3.78;;
46282;SDS011;32017;43.700;11.820;2023-04-06T10:59:47;3.40;;;3.30;;
46282;SDS011;32017;43.700;11.820;2023-04-06T11:02:08;3.53;;;3.42;;
46282;SDS011;32017;43.700;11.820;2023-04-06T11:04:28;2.97;;;2.88;;
46282;SDS011;32017;43.700;11.820;2023-04-06T11:06:49;4.03;;;3.72;;
46282;SDS011;32017;43.700;11.820;2023-04-06T11:09:10;3.03;;;2.92;;
46282;SDS011;32017;43.700;11.820;2023-04-06T11:11:30;3.67;;;3.38;;
46282;SDS011;32017;43.700;11.820;2023-04-06T11:13:54;3.53;;;3.42;;
46282;SDS011;32017;43.700;11.820;2023-04-06T11:16:16;3.80;;;3.70;;
46282;SDS011;32017;43.700;11.820;2023-04-06T11:18:36;2.17;;;2.08;;
46282;SDS011;32017;43.700;11.820;2023-04-06T11:20:57;3.20;;;2.95;;
46282;SDS011;32017;43.700;11.820;2023-04-06T11:23:24;2.55;;;2.42;;
46282;SDS011;32017;43.700;11.820;2023-04-06T11:25:50;3.40;;;3.20;;
46282;SDS011;32017;43.700;11.820;2023-04-06T11:28:10;2.95;;;2.85;;
46282;SDS011;32017;43.700;11.820;2023-04-06T11:30:31;2.53;;;2.42;;
46282;SDS011;32017;43.700;11.820;2023-04-06T11:32:51;2.55;;;2.55;;
46282;SDS011;32017;43.700;11.820;2023-04-06T11:35:21;2.45;;;2.45;;
46282;SDS011;32017;43.700;11.820;2023-04-06T11:37:42;2.03;;;2.00;;
46282;SDS011;32017;43.700;11.820;2023-04-06T11:40:03;1.85;;;1.85;;
46282;SDS011;32017;43.700;11.820;2023-04-06T11:42:24;2.33;;;2.33;;
46282;SDS011;32017;43.700;11.820;2023-04-06T11:44:44;2.00;;;2.00;;
46282;SDS011;32017;43.700;11.820;2023-04-06T11:47:06;1.70;;;1.70;;
46282;SDS011;32017;43.700;11.820;2023-04-06T11:49:27;2.22;;;2.13;;
46282;SDS011;32017;43.700;11.820;2023-04-06T11:51:48;2.60;;;2.53;;
46282;SDS011;32017;43.700;11.820;2023-04-06T11:54:08;1.73;;;1.73;;
46282;SDS011;32017;43.700;11.820;2023-04-06T11:56:28;2.20;;;1.67;;
46282;SDS011;32017;43.700;11.820;2023-04-06T11:58:49;2.83;;;2.50;;
46282;SDS011;32017;43.700;11.820;2023-04-06T12:01:09;2.15;;;2.05;;
46282;SDS011;32017;43.700;11.820;2023-04-06T12:03:29;2.58;;;2.03;;
46282;SDS011;32017;43.700;11.820;2023-04-06T12:05:50;1.63;;;1.63;;
46282;SDS011;32017;43.700;11.820;2023-04-06T12:08:10;1.73;;;1.55;;
46282;SDS011;32017;43.700;11.820;2023-04-06T12:10:30;1.88;;;1.88;;
46282;SDS011;32017;43.700;11.820;2023-04-06T12:12:51;1.80;;;1.70;;
46282;SDS011;32017;43.700;11.820;2023-04-06T12:15:11;2.08;;;2.05;;
46282;SDS011;32017;43.700;11.820;2023-04-06T12:17:31;2.00;;;2.00;;
46282;SDS011;32017;43.700;11.820;2023-04-06T12:19:51;1.70;;;1.60;;
46282;SDS011;32017;43.700;11.820;2023-04-06T12:22:11;1.70;;;1.60;;
46282;SDS011;32017;43.700;11.820;2023-04-06T12:24:32;1.60;;;1.60;;
46282;SDS011;32017;43.700;11.820;2023-04-06T12:26:52;1.52;;;1.42;;
46282;SDS011;32017;43.700;11.820;2023-04-06T12:29:28;1.63;;;1.50;;
46282;SDS011;32017;43.700;11.820;2023-04-06T12:31:48;1.45;;;1.45;;
46282;SDS011;32017;43.700;11.820;2023-04-06T12:34:10;1.52;;;1.52;;
46282;SDS011;32017;43.700;11.820;2023-04-06T12:36:30;1.50;;;1.50;;
46282;SDS011;32017;43.700;11.820;2023-04-06T12:38:51;1.70;;;1.70;;
46282;SDS011;32017;43.700;11.820;2023-04-06T12:41:12;1.77;;;1.67;;
46282;SDS011;32017;43.700;11.820;2023-04-06T12:43:32;1.45;;;1.33;;
46282;SDS011;32017;43.700;11.820;2023-04-06T12:45:52;1.80;;;1.42;;
46282;SDS011;32017;43.700;11.820;2023-04-06T12:48:12;1.50;;;1.50;;
46282;SDS011;32017;43.700;11.820;2023-04-06T12:50:32;1.30;;;1.30;;
46282;SDS011;32017;43.700;11.820;2023-04-06T12:52:52;1.60;;;1.60;;
46282;SDS011;32017;43.700;11.820;2023-04-06T12:55:12;32.50;;;19.92;;
46282;SDS011;32017;43.700;11.820;2023-04-06T12:57:33;85.70;;;45.60;;
46282;SDS011;32017;43.700;11.820;2023-04-06T12:59:53;2.92;;;2.72;;
46282;SDS011;32017;43.700;11.820;2023-04-06T13:02:14;1.65;;;1.60;;
46282;SDS011;32017;43.700;11.820;2023-04-06T13:04:35;1.42;;;1.33;;
46282;SDS011;32017;43.700;11.820;2023-04-06T13:06:55;2.53;;;1.75;;
46282;SDS011;32017;43.700;11.820;2023-04-06T13:09:15;1.80;;;1.80;;
46282;SDS011;32017;43.700;11.820;2023-04-06T13:11:36;1.98;;;1.75;;
46282;SDS011;32017;43.700;11.820;2023-04-06T13:13:56;1.63;;;1.63;;
46282;SDS011;32017;43.700;11.820;2023-04-06T13:16:16;1.45;;;1.45;;
46282;SDS011;32017;43.700;11.820;2023-04-06T13:18:36;1.65;;;1.65;;
46282;SDS011;32017;43.700;11.820;2023-04-06T13:20:58;1.60;;;1.50;;
46282;SDS011;32017;43.700;11.820;2023-04-06T13:23:18;2.25;;;1.33;;
46282;SDS011;32017;43.700;11.820;2023-04-06T13:25:39;1.80;;;1.70;;
46282;SDS011;32017;43.700;11.820;2023-04-06T13:27:59;2.15;;;2.03;;
46282;SDS011;32017;43.700;11.820;2023-04-06T13:30:20;1.70;;;1.60;;
46282;SDS011;32017;43.700;11.820;2023-04-06T13:32:40;1.90;;;1.50;;
46282;SDS011;32017;43.700;11.820;2023-04-06T13:35:00;1.60;;;1.60;;
46282;SDS011;32017;43.700;11.820;2023-04-06T13:37:22;1.30;;;1.30;;
46282;SDS011;32017;43.700;11.820;2023-04-06T13:39:43;1.30;;;1.30;;
46282;SDS011;32017;43.700;11.820;2023-04-06T13:42:03;1.73;;;1.70;;